createdAt,value
2018-10-05T00:01:41.963Z,60.50
2018-10-05T00:04:10.641Z,60.92
2018-10-05T00:06:39.360Z,60.57
2018-10-05T00:09:12.393Z,60.52
2018-10-05T00:11:41.221Z,60.90
2018-10-05T00:14:10.287Z,61.14
2018-10-05T00:16:38.939Z,61.08
2018-10-05T00:19:07.584Z,61.12
2018-10-05T00:21:36.202Z,60.96
2018-10-05T00:24:04.780Z,60.94
2018-10-05T00:26:34.052Z,60.83
2018-10-05T00:29:02.616Z,60.83
2018-10-05T00:31:31.191Z,61.17
2018-10-05T00:33:59.888Z,60.58
2018-10-05T00:36:28.448Z,60.59
2018-10-05T00:38:57.012Z,60.86
2018-10-05T00:41:25.615Z,60.18
2018-10-05T00:43:54.188Z,60.17
2018-10-05T00:46:22.775Z,60.72
2018-10-05T00:48:51.560Z,60.40
2018-10-05T00:51:20.160Z,60.59
2018-10-05T00:53:48.752Z,60.32
2018-10-05T00:56:17.898Z,60.96
2018-10-05T00:58:46.545Z,61.15
2018-10-05T01:01:15.147Z,60.94
2018-10-05T01:03:43.902Z,61.34
2018-10-05T01:06:12.477Z,61.02
2018-10-05T01:08:41.136Z,61.49
2018-10-05T01:11:09.884Z,61.29
2018-10-05T01:13:38.498Z,60.77
2018-10-05T01:16:07.111Z,61.09
2018-10-05T01:18:35.956Z,61.06
2018-10-05T01:21:04.556Z,60.89
2018-10-05T01:23:33.273Z,61.38
2018-10-05T01:26:02.226Z,61.29
2018-10-05T01:28:30.805Z,62.12
2018-10-05T01:30:59.427Z,62.29
2018-10-05T01:33:28.484Z,61.86
2018-10-05T01:35:57.081Z,62.05
2018-10-05T01:38:25.711Z,62.21
2018-10-05T01:40:54.428Z,62.16
2018-10-05T01:43:22.980Z,61.25
2018-10-05T01:45:51.548Z,61.87
2018-10-05T01:48:20.412Z,60.93
2018-10-05T01:50:48.955Z,61.37
2018-10-05T01:53:17.519Z,61.70
2018-10-05T01:55:46.196Z,61.08
2018-10-05T01:58:14.755Z,61.09
2018-10-05T02:00:43.435Z,61.45
2018-10-05T02:03:12.419Z,61.39
2018-10-05T02:05:41.000Z,60.86
2018-10-05T02:08:09.706Z,61.24
2018-10-05T02:10:38.785Z,61.21
2018-10-05T02:13:07.380Z,61.70
2018-10-05T02:15:36.471Z,61.81
2018-10-05T02:18:05.124Z,61.21
2018-10-05T02:20:34.010Z,61.22
2018-10-05T02:23:02.663Z,61.30
2018-10-05T02:25:31.422Z,61.31
2018-10-05T02:27:59.995Z,61.16
2018-10-05T02:30:28.555Z,60.76
2018-10-05T02:32:57.533Z,60.71
2018-10-05T02:35:26.084Z,61.50
2018-10-05T02:37:54.644Z,62.15
2018-10-05T02:40:23.220Z,61.58
2018-10-05T02:42:51.780Z,62.29
2018-10-05T02:45:20.340Z,62.23
2018-10-05T02:47:48.970Z,61.78
2018-10-05T02:50:17.531Z,61.99
2018-10-05T02:52:46.136Z,61.93
2018-10-05T02:55:14.763Z,62.26
2018-10-05T02:57:43.324Z,61.91
2018-10-05T03:00:23.051Z,62.26
2018-10-05T03:02:51.608Z,62.33
2018-10-05T03:05:20.200Z,62.60
2018-10-05T03:07:49.020Z,63.09
2018-10-05T03:10:17.680Z,63.31
2018-10-05T03:12:46.255Z,62.47
2018-10-05T03:15:14.828Z,62.70
2018-10-05T03:17:43.402Z,63.21
2018-10-05T03:20:11.965Z,63.37
2018-10-05T03:22:40.568Z,63.33
2018-10-05T03:25:09.239Z,63.41
2018-10-05T03:27:38.304Z,63.61
2018-10-05T03:30:07.196Z,63.85
2018-10-05T03:32:35.819Z,63.71
2018-10-05T03:35:04.608Z,63.38
2018-10-05T03:37:33.518Z,63.70
2018-10-05T03:40:02.100Z,62.93
2018-10-05T03:42:30.664Z,63.29
2018-10-05T03:44:59.264Z,63.12
2018-10-05T03:47:27.840Z,62.98
2018-10-05T03:49:56.484Z,62.80
2018-10-05T03:52:25.761Z,63.08
2018-10-05T03:54:54.316Z,63.44
2018-10-05T03:57:23.355Z,63.29
2018-10-05T03:59:51.988Z,63.24
2018-10-05T04:02:20.570Z,63.36
2018-10-05T04:04:49.157Z,63.09
2018-10-05T04:07:17.757Z,62.45
2018-10-05T04:09:46.325Z,61.93
2018-10-05T04:12:14.904Z,62.19
2018-10-05T04:14:43.774Z,62.49
2018-10-05T04:17:12.328Z,62.15
2018-10-05T04:19:40.901Z,61.91
2018-10-05T04:22:09.679Z,61.85
2018-10-05T04:24:38.272Z,62.15
2018-10-05T04:27:06.880Z,61.96
2018-10-05T04:29:35.438Z,61.66
2018-10-05T04:32:03.987Z,61.92
2018-10-05T04:34:32.558Z,62.55
2018-10-05T04:37:01.149Z,62.29
2018-10-05T04:39:30.103Z,62.38
2018-10-05T04:41:58.693Z,62.58
2018-10-05T04:44:28.436Z,62.14
2018-10-05T04:46:57.040Z,62.99
2018-10-05T04:49:25.647Z,62.93
2018-10-05T04:51:54.244Z,63.30
2018-10-05T04:54:22.824Z,63.66
2018-10-05T04:56:51.413Z,63.78
2018-10-05T04:59:20.002Z,63.88
2018-10-05T05:01:48.600Z,63.65
2018-10-05T05:04:17.180Z,64.01
2018-10-05T05:06:45.908Z,63.83
2018-10-05T05:09:14.901Z,64.08
2018-10-05T05:11:43.528Z,64.78
2018-10-05T05:14:12.272Z,64.20
2018-10-05T05:16:41.039Z,64.55
2018-10-05T05:19:09.623Z,64.20
2018-10-05T05:21:38.291Z,64.18
2018-10-05T05:24:06.851Z,64.30
2018-10-05T05:26:35.428Z,63.74
2018-10-05T05:29:04.160Z,63.49
2018-10-05T05:31:32.702Z,63.79
2018-10-05T05:34:01.302Z,63.68
2018-10-05T05:36:29.872Z,63.28
2018-10-05T05:38:58.558Z,63.67
2018-10-05T05:41:27.107Z,64.02
2018-10-05T05:43:55.739Z,63.43
2018-10-05T05:46:24.319Z,63.46
2018-10-05T05:48:52.876Z,63.26
2018-10-05T05:51:21.460Z,63.95
2018-10-05T05:53:50.042Z,63.60
2018-10-05T05:56:18.612Z,63.41
2018-10-05T05:58:47.304Z,63.96
2018-10-05T06:01:15.907Z,63.78
2018-10-05T06:03:45.207Z,63.69
2018-10-05T06:06:14.053Z,63.76
2018-10-05T06:08:42.623Z,64.02
2018-10-05T06:11:11.740Z,63.82
2018-10-05T06:13:40.319Z,63.61
2018-10-05T06:16:08.970Z,63.82
2018-10-05T06:18:37.540Z,63.76
2018-10-05T06:21:06.215Z,64.13
2018-10-05T06:23:35.187Z,64.12
2018-10-05T06:26:03.745Z,64.38
2018-10-05T06:28:32.423Z,64.26
2018-10-05T06:31:01.129Z,64.26
2018-10-05T06:33:29.896Z,64.71
2018-10-05T06:35:58.589Z,64.52
2018-10-05T06:38:27.161Z,64.11
2018-10-05T06:40:55.715Z,63.86
2018-10-05T06:43:24.389Z,64.57
2018-10-05T06:45:52.948Z,63.95
2018-10-05T06:48:21.567Z,63.51
2018-10-05T06:50:50.595Z,63.09
2018-10-05T06:53:19.188Z,62.86
2018-10-05T06:55:47.784Z,62.86
2018-10-05T06:58:16.376Z,62.07
2018-10-05T07:00:45.155Z,61.31
2018-10-05T07:03:13.715Z,61.19
2018-10-05T07:05:42.355Z,60.72
2018-10-05T07:08:10.967Z,59.68
2018-10-05T07:10:39.495Z,58.79
2018-10-05T07:13:08.277Z,57.16
2018-10-05T07:15:36.858Z,56.02
2018-10-05T07:18:05.431Z,55.08
2018-10-05T07:20:34.076Z,52.97
2018-10-05T07:23:03.007Z,51.64
2018-10-05T07:25:31.576Z,50.24
2018-10-05T07:28:00.591Z,48.92
2018-10-05T07:30:29.143Z,48.30
2018-10-05T07:32:58.204Z,47.37
2018-10-05T07:35:26.804Z,47.48
2018-10-05T07:37:55.767Z,46.76
2018-10-05T07:40:24.331Z,46.44
2018-10-05T07:42:53.094Z,45.70
2018-10-05T07:45:21.635Z,45.63
2018-10-05T07:47:50.219Z,45.43
2018-10-05T07:50:18.905Z,45.75
2018-10-05T07:52:47.471Z,46.00
2018-10-05T07:55:16.054Z,45.57
2018-10-05T07:57:44.726Z,46.03
2018-10-05T08:00:13.474Z,45.35
2018-10-05T08:02:42.100Z,44.74
2018-10-05T08:05:10.768Z,44.26
2018-10-05T08:07:39.327Z,44.32
2018-10-05T08:10:07.947Z,44.04
2018-10-05T08:12:36.652Z,43.52
2018-10-05T08:15:06.067Z,43.34
2018-10-05T08:17:34.673Z,43.28
2018-10-05T08:20:03.316Z,43.08
2018-10-05T08:22:32.228Z,42.69
2018-10-05T08:25:00.794Z,42.76
2018-10-05T08:27:29.419Z,42.47
2018-10-05T08:29:57.980Z,41.77
2018-10-05T08:32:26.572Z,42.06
2018-10-05T08:34:55.167Z,42.00
2018-10-05T08:37:23.731Z,41.40
2018-10-05T08:39:52.390Z,41.88
2018-10-05T08:42:21.049Z,42.01
2018-10-05T08:44:49.611Z,41.14
2018-10-05T08:47:18.601Z,41.18
2018-10-05T08:49:47.185Z,40.56
2018-10-05T08:52:15.773Z,40.44
2018-10-05T08:54:44.336Z,40.05
2018-10-05T08:57:13.113Z,39.87
2018-10-05T08:59:41.667Z,39.89
2018-10-05T09:02:10.228Z,40.82
2018-10-05T09:04:38.928Z,39.54
2018-10-05T09:07:07.479Z,38.70
2018-10-05T09:09:36.044Z,38.11
2018-10-05T09:12:04.787Z,38.34
2018-10-05T09:14:33.351Z,38.01
2018-10-05T09:17:01.935Z,36.61
2018-10-05T09:19:30.855Z,36.71
2018-10-05T09:21:59.567Z,35.40
2018-10-05T09:24:28.126Z,35.09
2018-10-05T09:26:56.857Z,34.43
2018-10-05T09:29:25.447Z,34.28
2018-10-05T09:31:54.032Z,34.49
2018-10-05T09:34:22.838Z,35.26
2018-10-05T09:36:51.452Z,34.66
2018-10-05T09:39:20.052Z,33.41
2018-10-05T09:41:48.671Z,32.41
2018-10-05T09:44:17.269Z,31.95
2018-10-05T09:46:45.869Z,31.56
2018-10-05T09:49:14.577Z,31.71
2018-10-05T09:51:43.251Z,31.36
2018-10-05T09:54:11.811Z,31.02
2018-10-05T09:56:40.406Z,30.48
2018-10-05T09:59:09.159Z,30.37
2018-10-05T10:01:43.000Z,29.86
2018-10-05T10:04:11.564Z,29.91
2018-10-05T10:06:40.132Z,29.79
2018-10-05T10:09:10.247Z,29.01
2018-10-05T10:11:39.307Z,28.87
2018-10-05T10:14:07.927Z,28.01
2018-10-05T10:16:37.189Z,27.67
2018-10-05T10:19:05.924Z,27.87
2018-10-05T10:21:34.495Z,27.85
2018-10-05T10:24:04.008Z,27.27
2018-10-05T10:26:33.015Z,27.44
2018-10-05T10:29:01.712Z,26.99
2018-10-05T10:31:30.211Z,26.83
2018-10-05T10:33:58.775Z,26.45
2018-10-05T10:36:27.536Z,26.62
2018-10-05T10:38:56.156Z,26.93
2018-10-05T10:41:24.744Z,26.79
2018-10-05T10:43:53.307Z,26.90
2018-10-05T10:46:21.907Z,27.09
2018-10-05T10:48:50.486Z,27.45
2018-10-05T10:51:19.060Z,28.08
2018-10-05T10:53:47.888Z,28.29
2018-10-05T10:56:16.541Z,28.09
2018-10-05T10:58:45.028Z,29.14
2018-10-05T11:01:13.689Z,29.43
2018-10-05T11:03:42.251Z,29.86
2018-10-05T11:06:10.831Z,30.55
2018-10-05T11:08:39.463Z,29.50
2018-10-05T11:11:08.086Z,28.30
2018-10-05T11:13:36.676Z,27.86
2018-10-05T11:16:05.350Z,25.04
2018-10-05T11:18:33.931Z,23.66
2018-10-05T11:21:02.507Z,20.54
2018-10-05T11:23:31.188Z,19.12
2018-10-05T11:25:59.768Z,18.58
2018-10-05T11:28:28.362Z,17.93
2018-10-05T11:30:57.000Z,17.16
2018-10-05T11:33:25.623Z,16.94
2018-10-05T11:35:54.959Z,16.73
2018-10-05T11:38:25.303Z,15.88
2018-10-05T11:40:55.701Z,15.98
2018-10-05T11:43:25.704Z,14.88
2018-10-05T11:45:54.615Z,14.08
2018-10-05T11:48:23.703Z,13.63
2018-10-05T11:50:54.467Z,12.91
2018-10-05T11:53:24.704Z,13.28
2018-10-05T11:55:54.476Z,12.54
2018-10-05T11:58:24.587Z,14.17
2018-10-05T12:00:54.382Z,15.72
2018-10-05T12:03:23.148Z,19.39
2018-10-05T12:05:51.596Z,22.55
2018-10-05T12:08:20.430Z,24.59
2018-10-05T12:10:50.640Z,27.02
2018-10-05T12:13:21.075Z,28.94
2018-10-05T12:15:51.412Z,29.53
2018-10-05T12:18:22.112Z,31.00
2018-10-05T12:20:52.069Z,32.89
2018-10-05T12:23:21.130Z,32.25
2018-10-05T12:25:50.251Z,33.23
2018-10-05T12:28:20.152Z,32.79
2018-10-05T12:30:48.715Z,33.19
2018-10-05T12:33:17.442Z,34.18
2018-10-05T12:35:46.616Z,34.62
2018-10-05T12:38:16.863Z,34.58
2018-10-05T12:40:45.452Z,34.97
2018-10-05T12:43:14.144Z,35.12
2018-10-05T12:45:42.822Z,36.51
2018-10-05T12:48:12.766Z,36.09
2018-10-05T12:50:42.138Z,35.70
2018-10-05T12:53:10.977Z,35.95
2018-10-05T12:55:39.706Z,36.55
2018-10-05T12:58:08.371Z,36.37
2018-10-05T13:00:37.047Z,35.98
2018-10-05T13:03:05.704Z,36.48
2018-10-05T13:05:34.292Z,36.58
2018-10-05T13:08:03.468Z,36.80
2018-10-05T13:10:32.032Z,37.75
2018-10-05T13:13:00.618Z,36.84
2018-10-05T13:15:29.431Z,37.12
2018-10-05T13:17:58.072Z,37.07
2018-10-05T13:20:26.672Z,37.21
2018-10-05T13:22:55.291Z,37.02
2018-10-05T13:25:23.860Z,36.71
2018-10-05T13:27:52.435Z,37.27
2018-10-05T13:30:21.135Z,37.44
2018-10-05T13:32:49.797Z,37.14
2018-10-05T13:35:18.392Z,36.60
2018-10-05T13:37:47.019Z,36.43
2018-10-05T13:40:15.599Z,37.79
2018-10-05T13:42:44.156Z,37.84
2018-10-05T13:45:12.764Z,37.00
2018-10-05T13:47:41.344Z,36.91
2018-10-05T13:50:12.196Z,36.86
2018-10-05T13:52:40.823Z,37.19
2018-10-05T13:55:09.408Z,37.05
2018-10-05T13:57:38.021Z,37.20
2018-10-05T14:00:06.876Z,37.04
2018-10-05T14:02:35.499Z,36.87
2018-10-05T14:05:04.203Z,37.11
2018-10-05T14:07:32.775Z,37.01
2018-10-05T14:10:01.353Z,37.79
2018-10-05T14:12:31.032Z,37.54
2018-10-05T14:15:00.485Z,37.73
2018-10-05T14:17:30.311Z,37.60
2018-10-05T14:19:58.919Z,37.24
2018-10-05T14:22:27.508Z,38.11
2018-10-05T14:24:56.184Z,37.40
2018-10-05T14:27:26.343Z,37.59
2018-10-05T14:29:56.928Z,37.54
2018-10-05T14:32:26.392Z,37.83
2018-10-05T14:34:56.127Z,37.40
2018-10-05T14:37:26.083Z,37.51
2018-10-05T14:39:56.016Z,38.11
2018-10-05T14:42:26.672Z,37.82
2018-10-05T14:44:56.648Z,38.66
2018-10-05T14:47:26.923Z,38.15
2018-10-05T14:49:56.596Z,37.89
2018-10-05T14:52:27.228Z,37.95
2018-10-05T14:54:57.142Z,37.06
2018-10-05T14:57:27.476Z,37.58
2018-10-05T14:59:58.169Z,37.62
2018-10-05T15:02:27.583Z,37.08
2018-10-05T15:04:58.244Z,37.60
2018-10-05T15:07:26.883Z,38.02
2018-10-05T15:09:55.972Z,37.64
2018-10-05T15:12:25.135Z,37.80
2018-10-05T15:14:54.598Z,37.89
2018-10-05T15:17:23.524Z,38.26
2018-10-05T15:19:54.224Z,38.52
2018-10-05T15:22:24.119Z,38.07
2018-10-05T15:24:52.743Z,37.90
2018-10-05T15:27:22.061Z,38.14
2018-10-05T15:29:52.564Z,38.51
2018-10-05T15:32:22.176Z,38.75
2018-10-05T15:34:51.380Z,38.51
2018-10-05T15:37:20.358Z,38.72
2018-10-05T15:39:49.495Z,39.02
2018-10-05T15:42:18.582Z,38.56
2018-10-05T15:44:47.340Z,38.25
2018-10-05T15:47:17.435Z,38.77
2018-10-05T15:49:46.728Z,38.35
2018-10-05T15:52:15.310Z,38.30
2018-10-05T15:54:43.966Z,38.92
2018-10-05T15:57:12.619Z,39.13
2018-10-05T15:59:41.159Z,39.25
2018-10-05T16:02:09.835Z,39.15
2018-10-05T16:04:38.429Z,39.32
2018-10-05T16:07:07.040Z,39.38
2018-10-05T16:09:35.923Z,39.32
2018-10-05T16:12:04.560Z,39.73
2018-10-05T16:14:33.196Z,40.54
2018-10-05T16:17:01.839Z,40.05
2018-10-05T16:19:30.448Z,39.89
2018-10-05T16:21:59.070Z,40.27
2018-10-05T16:24:32.988Z,40.68
2018-10-05T16:27:01.579Z,41.08
2018-10-05T16:29:30.168Z,40.50
2018-10-05T16:31:58.828Z,41.80
2018-10-05T16:34:27.400Z,41.39
2018-10-05T16:36:55.960Z,41.30
2018-10-05T16:39:24.824Z,41.24
2018-10-05T16:41:53.411Z,41.75
2018-10-05T16:44:21.988Z,42.62
2018-10-05T16:46:50.652Z,42.20
2018-10-05T16:49:19.216Z,42.79
2018-10-05T16:51:48.148Z,42.16
2018-10-05T16:54:17.033Z,42.48
2018-10-05T16:56:45.655Z,43.04
2018-10-05T16:59:15.128Z,43.47
2018-10-05T17:01:43.975Z,43.93
2018-10-05T17:04:12.602Z,43.42
2018-10-05T17:06:41.175Z,44.00
2018-10-05T17:09:11.054Z,44.05
2018-10-05T17:11:41.191Z,43.84
2018-10-05T17:14:09.764Z,44.97
2018-10-05T17:16:38.487Z,45.02
2018-10-05T17:19:07.487Z,44.82
2018-10-05T17:21:36.479Z,45.03
2018-10-05T17:24:05.144Z,45.86
2018-10-05T17:26:33.707Z,45.51
2018-10-05T17:29:02.272Z,45.74
2018-10-05T17:31:31.103Z,46.02
2018-10-05T17:34:00.824Z,46.06
2018-10-05T17:36:29.387Z,45.87
2018-10-05T17:38:58.065Z,46.12
2018-10-05T17:41:26.628Z,46.99
2018-10-05T17:43:55.204Z,47.23
2018-10-05T17:46:24.249Z,47.47
2018-10-05T17:48:52.842Z,47.55
2018-10-05T17:51:21.411Z,48.43
2018-10-05T17:53:50.115Z,48.53
2018-10-05T17:56:18.724Z,48.69
2018-10-05T17:58:47.835Z,49.09
2018-10-05T18:01:16.567Z,48.82
2018-10-05T18:03:45.145Z,49.88
2018-10-05T18:06:13.746Z,50.31
2018-10-05T18:08:42.419Z,50.33
2018-10-05T18:11:11.451Z,50.91
2018-10-05T18:13:40.024Z,51.66
2018-10-05T18:16:08.751Z,51.58
2018-10-05T18:18:38.817Z,51.44
2018-10-05T18:21:08.369Z,51.44
2018-10-05T18:23:39.130Z,50.92
2018-10-05T18:26:07.853Z,51.20
2018-10-05T18:28:36.444Z,51.51
2018-10-05T18:31:05.096Z,51.70
2018-10-05T18:33:33.724Z,51.70
2018-10-05T18:36:02.408Z,51.67
2018-10-05T18:38:30.968Z,51.35
2018-10-05T18:40:59.799Z,52.06
2018-10-05T18:43:28.391Z,52.00
2018-10-05T18:45:56.959Z,51.34
2018-10-05T18:48:25.559Z,51.37
2018-10-05T18:50:54.250Z,51.62
2018-10-05T18:53:22.787Z,51.63
2018-10-05T18:55:51.492Z,52.09
2018-10-05T18:58:20.080Z,51.77
2018-10-05T19:00:48.664Z,51.82
2018-10-05T19:03:17.259Z,51.77
2018-10-05T19:05:46.778Z,52.13
2018-10-05T19:08:17.274Z,52.30
2018-10-05T19:10:46.171Z,53.01
2018-10-05T19:13:14.767Z,53.04
2018-10-05T19:15:44.308Z,53.44
2018-10-05T19:18:12.979Z,53.36
2018-10-05T19:20:41.563Z,53.41
2018-10-05T19:23:10.160Z,53.33
2018-10-05T19:25:38.815Z,53.27
2018-10-05T19:28:07.474Z,54.11
2018-10-05T19:30:36.213Z,53.85
2018-10-05T19:33:04.859Z,53.74
2018-10-05T19:35:33.457Z,53.88
2018-10-05T19:38:02.064Z,54.02
2018-10-05T19:40:30.700Z,54.35
2018-10-05T19:42:59.483Z,54.82
2018-10-05T19:45:28.332Z,54.82
2018-10-05T19:47:56.999Z,54.93
2018-10-05T19:50:25.598Z,55.22
2018-10-05T19:52:54.820Z,55.45
2018-10-05T19:55:23.576Z,55.65
2018-10-05T19:57:52.299Z,55.93
2018-10-05T20:00:20.891Z,56.08
2018-10-05T20:02:49.600Z,56.24
2018-10-05T20:05:18.206Z,56.58
2018-10-05T20:07:46.880Z,56.56
2018-10-05T20:10:15.660Z,57.04
2018-10-05T20:12:44.292Z,57.00
2018-10-05T20:15:13.001Z,57.08
2018-10-05T20:17:41.736Z,57.04
2018-10-05T20:20:10.228Z,56.78
2018-10-05T20:22:39.260Z,56.96
2018-10-05T20:25:07.859Z,57.19
2018-10-05T20:27:36.452Z,57.33
2018-10-05T20:30:05.799Z,57.72
2018-10-05T20:32:34.472Z,57.46
2018-10-05T20:35:03.496Z,57.38
2018-10-05T20:37:32.435Z,57.54
2018-10-05T20:40:00.864Z,57.58
2018-10-05T20:42:29.470Z,58.00
2018-10-05T20:44:58.307Z,57.77
2018-10-05T20:47:27.100Z,58.45
2018-10-05T20:49:55.668Z,58.45
2018-10-05T20:52:24.437Z,58.75
2018-10-05T20:54:53.039Z,59.38
2018-10-05T20:57:21.623Z,59.47
2018-10-05T20:59:50.463Z,59.83
2018-10-05T21:02:19.051Z,59.59
2018-10-05T21:04:50.821Z,59.95
2018-10-05T21:07:19.545Z,59.90
2018-10-05T21:09:48.250Z,59.74
2018-10-05T21:12:16.872Z,60.17
2018-10-05T21:14:45.579Z,60.69
2018-10-05T21:17:14.175Z,60.75
2018-10-05T21:19:42.928Z,60.88
2018-10-05T21:22:11.668Z,60.80
2018-10-05T21:24:40.219Z,61.54
2018-10-05T21:27:08.913Z,61.26
2018-10-05T21:29:37.484Z,61.40
2018-10-05T21:32:06.143Z,61.89
2018-10-05T21:34:34.836Z,61.48
2018-10-05T21:37:03.421Z,61.20
2018-10-05T21:39:32.141Z,61.34
2018-10-05T21:42:00.824Z,61.26
2018-10-05T21:44:29.391Z,61.31
2018-10-05T21:46:57.991Z,61.58
2018-10-05T21:49:26.615Z,61.53
2018-10-05T21:51:55.244Z,61.60
2018-10-05T21:54:23.808Z,61.63
2018-10-05T21:56:52.949Z,61.55
2018-10-05T21:59:21.533Z,61.52
2018-10-05T22:01:50.444Z,61.94
2018-10-05T22:04:19.501Z,61.12
2018-10-05T22:06:48.127Z,61.37
2018-10-05T22:09:16.729Z,61.08
2018-10-05T22:11:45.373Z,61.11
2018-10-05T22:14:13.968Z,61.49
2018-10-05T22:16:42.605Z,61.51
2018-10-05T22:19:11.319Z,61.78
2018-10-05T22:21:40.031Z,61.63
2018-10-05T22:24:08.632Z,61.64
2018-10-05T22:26:37.316Z,60.82
2018-10-05T22:29:05.909Z,61.01
2018-10-05T22:31:34.588Z,61.62
2018-10-05T22:34:03.446Z,61.91
2018-10-05T22:36:32.025Z,61.79
2018-10-05T22:39:00.604Z,62.03
2018-10-05T22:41:29.364Z,62.12
2018-10-05T22:43:57.948Z,61.95
2018-10-05T22:46:26.539Z,62.09
2018-10-05T22:48:55.188Z,61.75
2018-10-05T22:51:23.772Z,62.24
2018-10-05T22:53:52.340Z,61.88
2018-10-05T22:56:21.235Z,61.69
2018-10-05T22:58:49.968Z,61.52
2018-10-05T23:01:18.544Z,61.38
2018-10-05T23:03:47.169Z,61.64
2018-10-05T23:06:16.671Z,61.55
2018-10-05T23:08:45.257Z,61.70
2018-10-05T23:11:13.907Z,61.31
2018-10-05T23:13:42.480Z,61.76
2018-10-05T23:16:11.052Z,61.08
2018-10-05T23:18:39.712Z,61.20
2018-10-05T23:21:08.292Z,61.39
2018-10-05T23:23:36.863Z,60.98
2018-10-05T23:26:05.580Z,61.19
2018-10-05T23:28:34.163Z,61.22
2018-10-05T23:31:02.728Z,61.13
2018-10-05T23:33:31.425Z,61.33
2018-10-05T23:36:00.035Z,61.70
2018-10-05T23:38:28.615Z,61.71
2018-10-05T23:40:57.235Z,61.47
2018-10-05T23:43:25.812Z,61.78
2018-10-05T23:45:54.419Z,62.08
2018-10-05T23:48:23.111Z,61.62
2018-10-05T23:50:51.704Z,61.33
2018-10-05T23:53:20.283Z,61.33
2018-10-05T23:55:48.904Z,61.53
2018-10-05T23:58:17.557Z,61.44
